sensor_id;sensor_type;location;lat;lon;timestamp;temperature;humidity
4052;DHT22;2040;50.924;11.604;2022-12-29T00:01:38;7.40;99.90
4052;DHT22;2040;50.924;11.604;2022-12-29T00:04:04;7.50;99.90
4052;DHT22;2040;50.924;11.604;2022-12-29T00:06:30;7.50;99.90
4052;DHT22;2040;50.924;11.604;2022-12-29T00:08:56;7.50;99.90
4052;DHT22;2040;50.924;11.604;2022-12-29T00:11:27;7.50;99.90
4052;DHT22;2040;50.924;11.604;2022-12-29T00:13:53;7.50;99.90
4052;DHT22;2040;50.924;11.604;2022-12-29T00:16:40;7.70;99.90
4052;DHT22;2040;50.924;11.604;2022-12-29T00:19:06;7.70;99.90
4052;DHT22;2040;50.924;11.604;2022-12-29T00:21:32;7.60;99.90
4052;DHT22;2040;50.924;11.604;2022-12-29T00:24:19;7.60;99.90
4052;DHT22;2040;50.924;11.604;2022-12-29T00:29:46;7.60;99.90
4052;DHT22;2040;50.924;11.604;2022-12-29T00:32:30;7.60;99.90
4052;DHT22;2040;50.924;11.604;2022-12-29T00:35:28;7.60;99.90
4052;DHT22;2040;50.924;11.604;2022-12-29T00:37:55;7.80;99.90
4052;DHT22;2040;50.924;11.604;2022-12-29T00:40:40;7.90;99.90
4052;DHT22;2040;50.924;11.604;2022-12-29T00:43:24;7.80;99.90
4052;DHT22;2040;50.924;11.604;2022-12-29T00:46:09;7.80;99.90
4052;DHT22;2040;50.924;11.604;2022-12-29T00:48:34;8.10;99.90
4052;DHT22;2040;50.924;11.604;2022-12-29T00:51:18;8.10;99.90
4052;DHT22;2040;50.924;11.604;2022-12-29T00:53:44;8.00;99.90
4052;DHT22;2040;50.924;11.604;2022-12-29T00:56:09;8.00;99.90
4052;DHT22;2040;50.924;11.604;2022-12-29T00:58:35;8.00;99.90
4052;DHT22;2040;50.924;11.604;2022-12-29T01:01:02;7.90;99.90
4052;DHT22;2040;50.924;11.604;2022-12-29T01:03:28;7.80;99.90
4052;DHT22;2040;50.924;11.604;2022-12-29T01:05:53;7.90;99.90
4052;DHT22;2040;50.924;11.604;2022-12-29T01:08:19;7.90;99.90
4052;DHT22;2040;50.924;11.604;2022-12-29T01:10:44;7.90;99.90
4052;DHT22;2040;50.924;11.604;2022-12-29T01:13:10;7.90;99.90
4052;DHT22;2040;50.924;11.604;2022-12-29T01:15:35;8.00;99.90
4052;DHT22;2040;50.924;11.604;2022-12-29T01:18:01;8.00;99.90
4052;DHT22;2040;50.924;11.604;2022-12-29T01:20:26;7.90;99.90
4052;DHT22;2040;50.924;11.604;2022-12-29T01:22:54;8.10;99.90
4052;DHT22;2040;50.924;11.604;2022-12-29T01:25:19;8.30;99.90
4052;DHT22;2040;50.924;11.604;2022-12-29T01:27:45;8.40;99.90
4052;DHT22;2040;50.924;11.604;2022-12-29T01:30:11;8.40;99.90
4052;DHT22;2040;50.924;11.604;2022-12-29T01:32:36;8.40;99.90
4052;DHT22;2040;50.924;11.604;2022-12-29T01:35:02;8.50;99.90
4052;DHT22;2040;50.924;11.604;2022-12-29T01:37:28;8.50;99.90
4052;DHT22;2040;50.924;11.604;2022-12-29T01:39:53;8.60;99.90
4052;DHT22;2040;50.924;11.604;2022-12-29T01:42:23;8.70;99.90
4052;DHT22;2040;50.924;11.604;2022-12-29T01:44:57;8.80;99.90
4052;DHT22;2040;50.924;11.604;2022-12-29T01:47:33;8.60;99.90
4052;DHT22;2040;50.924;11.604;2022-12-29T01:50:05;8.60;99.90
4052;DHT22;2040;50.924;11.604;2022-12-29T01:52:33;8.70;99.90
4052;DHT22;2040;50.924;11.604;2022-12-29T01:55:02;8.70;99.90
4052;DHT22;2040;50.924;11.604;2022-12-29T01:57:34;8.70;99.90
4052;DHT22;2040;50.924;11.604;2022-12-29T02:00:08;8.90;99.90
4052;DHT22;2040;50.924;11.604;2022-12-29T02:02:34;8.90;99.90
4052;DHT22;2040;50.924;11.604;2022-12-29T02:05:07;8.90;99.90
4052;DHT22;2040;50.924;11.604;2022-12-29T02:07:35;9.00;99.90
4052;DHT22;2040;50.924;11.604;2022-12-29T02:10:02;8.90;99.90
4052;DHT22;2040;50.924;11.604;2022-12-29T02:12:28;8.90;99.90
4052;DHT22;2040;50.924;11.604;2022-12-29T02:14:57;8.90;99.90
4052;DHT22;2040;50.924;11.604;2022-12-29T02:22:58;8.70;99.90
4052;DHT22;2040;50.924;11.604;2022-12-29T02:25:38;8.80;99.90
4052;DHT22;2040;50.924;11.604;2022-12-29T02:31:29;8.60;99.90
4052;DHT22;2040;50.924;11.604;2022-12-29T02:34:26;8.60;99.90
4052;DHT22;2040;50.924;11.604;2022-12-29T02:37:22;8.60;99.90
4052;DHT22;2040;50.924;11.604;2022-12-29T02:39:51;8.60;99.90
4052;DHT22;2040;50.924;11.604;2022-12-29T02:42:51;8.60;99.90
4052;DHT22;2040;50.924;11.604;2022-12-29T02:45:24;8.80;99.90
4052;DHT22;2040;50.924;11.604;2022-12-29T02:47:59;8.60;99.90
4052;DHT22;2040;50.924;11.604;2022-12-29T02:50:40;8.60;99.90
4052;DHT22;2040;50.924;11.604;2022-12-29T02:53:15;8.60;99.90
4052;DHT22;2040;50.924;11.604;2022-12-29T02:55:49;8.70;99.90
4052;DHT22;2040;50.924;11.604;2022-12-29T02:58:21;8.60;99.90
4052;DHT22;2040;50.924;11.604;2022-12-29T03:07:03;8.70;99.90
4052;DHT22;2040;50.924;11.604;2022-12-29T03:12:29;8.60;99.90
4052;DHT22;2040;50.924;11.604;2022-12-29T03:15:28;8.70;99.90
4052;DHT22;2040;50.924;11.604;2022-12-29T03:18:24;8.60;99.90
4052;DHT22;2040;50.924;11.604;2022-12-29T03:20:58;8.60;99.90
4052;DHT22;2040;50.924;11.604;2022-12-29T03:23:27;8.70;99.90
4052;DHT22;2040;50.924;11.604;2022-12-29T03:26:00;8.60;99.90
4052;DHT22;2040;50.924;11.604;2022-12-29T03:28:33;8.50;99.90
4052;DHT22;2040;50.924;11.604;2022-12-29T03:31:03;8.50;99.90
4052;DHT22;2040;50.924;11.604;2022-12-29T03:33:30;8.40;99.90
4052;DHT22;2040;50.924;11.604;2022-12-29T03:35:59;8.40;99.90
4052;DHT22;2040;50.924;11.604;2022-12-29T03:38:34;8.40;99.90
4052;DHT22;2040;50.924;11.604;2022-12-29T03:41:07;8.40;99.90
4052;DHT22;2040;50.924;11.604;2022-12-29T03:43:33;8.50;99.90
4052;DHT22;2040;50.924;11.604;2022-12-29T03:45:59;8.60;99.90
4052;DHT22;2040;50.924;11.604;2022-12-29T03:48:24;8.60;99.90
4052;DHT22;2040;50.924;11.604;2022-12-29T03:50:50;8.70;99.90
4052;DHT22;2040;50.924;11.604;2022-12-29T03:53:16;8.70;99.90
4052;DHT22;2040;50.924;11.604;2022-12-29T03:55:41;8.90;99.90
4052;DHT22;2040;50.924;11.604;2022-12-29T03:58:07;8.80;99.90
4052;DHT22;2040;50.924;11.604;2022-12-29T04:00:32;8.80;99.90
4052;DHT22;2040;50.924;11.604;2022-12-29T04:02:58;8.90;99.90
4052;DHT22;2040;50.924;11.604;2022-12-29T04:05:23;8.90;99.90
4052;DHT22;2040;50.924;11.604;2022-12-29T04:07:49;8.90;99.90
4052;DHT22;2040;50.924;11.604;2022-12-29T04:10:15;9.00;99.90
4052;DHT22;2040;50.924;11.604;2022-12-29T04:12:40;9.10;99.90
4052;DHT22;2040;50.924;11.604;2022-12-29T04:15:07;9.00;99.90
4052;DHT22;2040;50.924;11.604;2022-12-29T04:17:33;8.90;99.90
4052;DHT22;2040;50.924;11.604;2022-12-29T04:19:58;8.90;99.90
4052;DHT22;2040;50.924;11.604;2022-12-29T04:22:44;8.80;99.90
4052;DHT22;2040;50.924;11.604;2022-12-29T04:25:10;8.70;99.90
4052;DHT22;2040;50.924;11.604;2022-12-29T04:27:35;8.70;99.90
4052;DHT22;2040;50.924;11.604;2022-12-29T04:30:01;8.80;99.90
4052;DHT22;2040;50.924;11.604;2022-12-29T04:32:26;8.90;99.90
4052;DHT22;2040;50.924;11.604;2022-12-29T04:34:52;8.90;99.90
4052;DHT22;2040;50.924;11.604;2022-12-29T04:37:18;8.90;99.90
4052;DHT22;2040;50.924;11.604;2022-12-29T04:39:43;8.90;99.90
4052;DHT22;2040;50.924;11.604;2022-12-29T04:42:09;8.90;99.90
4052;DHT22;2040;50.924;11.604;2022-12-29T04:44:34;8.80;99.90
4052;DHT22;2040;50.924;11.604;2022-12-29T04:47:00;8.70;99.90
4052;DHT22;2040;50.924;11.604;2022-12-29T04:49:25;8.80;99.90
4052;DHT22;2040;50.924;11.604;2022-12-29T04:51:51;8.80;99.90
4052;DHT22;2040;50.924;11.604;2022-12-29T04:54:16;8.70;99.90
4052;DHT22;2040;50.924;11.604;2022-12-29T04:56:42;8.70;99.90
4052;DHT22;2040;50.924;11.604;2022-12-29T04:59:07;8.60;99.90
4052;DHT22;2040;50.924;11.604;2022-12-29T05:01:33;8.60;99.90
4052;DHT22;2040;50.924;11.604;2022-12-29T05:03:58;8.70;99.90
4052;DHT22;2040;50.924;11.604;2022-12-29T05:06:24;8.80;99.90
4052;DHT22;2040;50.924;11.604;2022-12-29T05:08:49;8.70;99.90
4052;DHT22;2040;50.924;11.604;2022-12-29T05:11:15;8.80;99.90
4052;DHT22;2040;50.924;11.604;2022-12-29T05:13:40;8.80;99.90
4052;DHT22;2040;50.924;11.604;2022-12-29T05:16:06;8.80;99.90
4052;DHT22;2040;50.924;11.604;2022-12-29T05:18:32;8.70;99.90
4052;DHT22;2040;50.924;11.604;2022-12-29T05:20:57;8.70;99.90
4052;DHT22;2040;50.924;11.604;2022-12-29T05:23:23;8.70;99.90
4052;DHT22;2040;50.924;11.604;2022-12-29T05:25:49;8.80;99.90
4052;DHT22;2040;50.924;11.604;2022-12-29T05:28:14;8.80;99.90
4052;DHT22;2040;50.924;11.604;2022-12-29T05:30:40;8.80;99.90
4052;DHT22;2040;50.924;11.604;2022-12-29T05:33:05;8.80;99.90
4052;DHT22;2040;50.924;11.604;2022-12-29T05:35:32;8.80;99.90
4052;DHT22;2040;50.924;11.604;2022-12-29T05:37:58;8.90;99.90
4052;DHT22;2040;50.924;11.604;2022-12-29T05:40:23;8.90;99.90
4052;DHT22;2040;50.924;11.604;2022-12-29T05:42:49;8.90;99.90
4052;DHT22;2040;50.924;11.604;2022-12-29T05:45:14;8.90;99.90
4052;DHT22;2040;50.924;11.604;2022-12-29T05:47:40;8.90;99.90
4052;DHT22;2040;50.924;11.604;2022-12-29T05:50:06;9.00;99.90
4052;DHT22;2040;50.924;11.604;2022-12-29T05:52:31;9.00;99.90
4052;DHT22;2040;50.924;11.604;2022-12-29T05:54:57;9.00;99.90
4052;DHT22;2040;50.924;11.604;2022-12-29T05:57:22;8.90;99.90
4052;DHT22;2040;50.924;11.604;2022-12-29T05:59:48;8.90;99.90
4052;DHT22;2040;50.924;11.604;2022-12-29T06:02:13;9.00;99.90
4052;DHT22;2040;50.924;11.604;2022-12-29T06:04:39;9.10;99.90
4052;DHT22;2040;50.924;11.604;2022-12-29T06:07:04;9.00;99.90
4052;DHT22;2040;50.924;11.604;2022-12-29T06:09:30;9.10;99.90
4052;DHT22;2040;50.924;11.604;2022-12-29T06:11:55;9.20;99.90
4052;DHT22;2040;50.924;11.604;2022-12-29T06:14:21;9.10;99.90
4052;DHT22;2040;50.924;11.604;2022-12-29T06:16:47;9.10;99.90
4052;DHT22;2040;50.924;11.604;2022-12-29T06:19:12;9.00;99.90
4052;DHT22;2040;50.924;11.604;2022-12-29T06:21:38;9.00;99.90
4052;DHT22;2040;50.924;11.604;2022-12-29T06:24:04;8.90;99.90
4052;DHT22;2040;50.924;11.604;2022-12-29T06:26:30;9.10;99.90
4052;DHT22;2040;50.924;11.604;2022-12-29T06:28:55;9.10;99.90
4052;DHT22;2040;50.924;11.604;2022-12-29T06:31:21;9.10;99.90
4052;DHT22;2040;50.924;11.604;2022-12-29T06:33:47;9.10;99.90
4052;DHT22;2040;50.924;11.604;2022-12-29T06:36:12;9.00;99.90
4052;DHT22;2040;50.924;11.604;2022-12-29T06:38:38;8.80;99.90
4052;DHT22;2040;50.924;11.604;2022-12-29T06:41:03;8.70;99.90
4052;DHT22;2040;50.924;11.604;2022-12-29T06:43:29;8.70;99.90
4052;DHT22;2040;50.924;11.604;2022-12-29T06:45:55;8.90;99.90
4052;DHT22;2040;50.924;11.604;2022-12-29T06:48:22;8.90;99.90
4052;DHT22;2040;50.924;11.604;2022-12-29T06:50:47;9.00;99.90
4052;DHT22;2040;50.924;11.604;2022-12-29T06:53:13;9.10;99.90
4052;DHT22;2040;50.924;11.604;2022-12-29T06:55:39;9.10;99.90
4052;DHT22;2040;50.924;11.604;2022-12-29T06:58:04;9.10;99.90
4052;DHT22;2040;50.924;11.604;2022-12-29T07:00:30;9.40;99.90
4052;DHT22;2040;50.924;11.604;2022-12-29T07:02:56;9.40;99.90
4052;DHT22;2040;50.924;11.604;2022-12-29T07:05:23;9.40;99.90
4052;DHT22;2040;50.924;11.604;2022-12-29T07:07:50;9.40;99.90
4052;DHT22;2040;50.924;11.604;2022-12-29T07:10:16;9.30;99.90
4052;DHT22;2040;50.924;11.604;2022-12-29T07:12:41;9.30;99.90
4052;DHT22;2040;50.924;11.604;2022-12-29T07:15:07;9.20;99.90
4052;DHT22;2040;50.924;11.604;2022-12-29T07:17:33;9.20;99.90
4052;DHT22;2040;50.924;11.604;2022-12-29T07:19:58;9.20;99.90
4052;DHT22;2040;50.924;11.604;2022-12-29T07:22:24;9.30;99.90
4052;DHT22;2040;50.924;11.604;2022-12-29T07:24:49;9.30;99.90
4052;DHT22;2040;50.924;11.604;2022-12-29T07:27:15;9.30;99.90
4052;DHT22;2040;50.924;11.604;2022-12-29T07:29:40;9.50;99.90
4052;DHT22;2040;50.924;11.604;2022-12-29T07:32:06;9.40;99.90
4052;DHT22;2040;50.924;11.604;2022-12-29T07:34:31;9.40;99.90
4052;DHT22;2040;50.924;11.604;2022-12-29T07:36:57;9.50;99.90
4052;DHT22;2040;50.924;11.604;2022-12-29T07:39:22;9.50;99.90
4052;DHT22;2040;50.924;11.604;2022-12-29T07:41:48;9.40;99.90
4052;DHT22;2040;50.924;11.604;2022-12-29T07:44:13;9.40;99.90
4052;DHT22;2040;50.924;11.604;2022-12-29T07:46:39;9.50;99.90
4052;DHT22;2040;50.924;11.604;2022-12-29T07:49:04;9.70;99.90
4052;DHT22;2040;50.924;11.604;2022-12-29T07:51:30;9.70;99.90
4052;DHT22;2040;50.924;11.604;2022-12-29T07:53:56;9.70;99.90
4052;DHT22;2040;50.924;11.604;2022-12-29T07:56:24;9.90;99.90
4052;DHT22;2040;50.924;11.604;2022-12-29T07:58:50;9.80;99.90
4052;DHT22;2040;50.924;11.604;2022-12-29T08:01:15;9.90;99.90
4052;DHT22;2040;50.924;11.604;2022-12-29T08:03:41;9.90;99.90
4052;DHT22;2040;50.924;11.604;2022-12-29T08:06:09;9.90;99.90
4052;DHT22;2040;50.924;11.604;2022-12-29T08:08:35;9.90;99.90
4052;DHT22;2040;50.924;11.604;2022-12-29T08:11:00;9.90;99.90
4052;DHT22;2040;50.924;11.604;2022-12-29T08:13:26;9.90;99.90
4052;DHT22;2040;50.924;11.604;2022-12-29T08:15:51;10.00;99.90
4052;DHT22;2040;50.924;11.604;2022-12-29T08:18:17;10.00;99.90
4052;DHT22;2040;50.924;11.604;2022-12-29T08:20:42;10.00;99.90
4052;DHT22;2040;50.924;11.604;2022-12-29T08:23:08;10.00;99.90
4052;DHT22;2040;50.924;11.604;2022-12-29T08:25:34;10.10;99.90
4052;DHT22;2040;50.924;11.604;2022-12-29T08:27:59;10.10;99.90
4052;DHT22;2040;50.924;11.604;2022-12-29T08:30:25;10.10;99.90
4052;DHT22;2040;50.924;11.604;2022-12-29T08:32:50;10.10;99.90
4052;DHT22;2040;50.924;11.604;2022-12-29T08:35:16;10.00;99.90
4052;DHT22;2040;50.924;11.604;2022-12-29T08:37:41;9.90;99.90
4052;DHT22;2040;50.924;11.604;2022-12-29T08:40:07;10.00;99.90
4052;DHT22;2040;50.924;11.604;2022-12-29T08:42:33;9.90;99.90
4052;DHT22;2040;50.924;11.604;2022-12-29T08:44:59;9.90;99.90
4052;DHT22;2040;50.924;11.604;2022-12-29T08:47:25;10.00;99.90
4052;DHT22;2040;50.924;11.604;2022-12-29T08:49:51;10.10;99.90
4052;DHT22;2040;50.924;11.604;2022-12-29T08:52:17;10.10;99.90
4052;DHT22;2040;50.924;11.604;2022-12-29T08:54:42;10.00;99.90
4052;DHT22;2040;50.924;11.604;2022-12-29T08:57:08;10.00;99.90
4052;DHT22;2040;50.924;11.604;2022-12-29T08:59:33;10.00;99.90
4052;DHT22;2040;50.924;11.604;2022-12-29T09:01:59;10.20;99.90
4052;DHT22;2040;50.924;11.604;2022-12-29T09:04:25;10.30;99.90
4052;DHT22;2040;50.924;11.604;2022-12-29T09:06:52;10.40;99.90
4052;DHT22;2040;50.924;11.604;2022-12-29T09:09:18;10.50;99.90
4052;DHT22;2040;50.924;11.604;2022-12-29T09:11:44;10.60;99.90
4052;DHT22;2040;50.924;11.604;2022-12-29T09:14:09;10.70;99.90
4052;DHT22;2040;50.924;11.604;2022-12-29T09:16:36;10.80;99.90
4052;DHT22;2040;50.924;11.604;2022-12-29T09:19:02;10.70;99.90
4052;DHT22;2040;50.924;11.604;2022-12-29T09:21:28;10.70;99.90
4052;DHT22;2040;50.924;11.604;2022-12-29T09:23:53;10.80;99.90
4052;DHT22;2040;50.924;11.604;2022-12-29T09:26:19;10.90;99.90
4052;DHT22;2040;50.924;11.604;2022-12-29T09:28:45;10.90;99.90
4052;DHT22;2040;50.924;11.604;2022-12-29T09:31:11;10.90;99.90
4052;DHT22;2040;50.924;11.604;2022-12-29T09:33:37;11.00;99.90
4052;DHT22;2040;50.924;11.604;2022-12-29T09:36:03;11.00;99.90
4052;DHT22;2040;50.924;11.604;2022-12-29T09:38:29;11.00;99.90
4052;DHT22;2040;50.924;11.604;2022-12-29T09:40:59;11.10;99.90
4052;DHT22;2040;50.924;11.604;2022-12-29T09:46:29;11.00;99.90
4052;DHT22;2040;50.924;11.604;2022-12-29T09:51:55;11.10;99.90
4052;DHT22;2040;50.924;11.604;2022-12-29T09:54:41;11.10;99.90
4052;DHT22;2040;50.924;11.604;2022-12-29T09:57:25;11.10;99.90
4052;DHT22;2040;50.924;11.604;2022-12-29T09:59:57;11.10;99.90
4052;DHT22;2040;50.924;11.604;2022-12-29T10:02:36;11.00;99.90
4052;DHT22;2040;50.924;11.604;2022-12-29T10:05:02;11.00;99.90
4052;DHT22;2040;50.924;11.604;2022-12-29T10:07:48;11.00;99.90
4052;DHT22;2040;50.924;11.604;2022-12-29T10:10:29;11.00;99.90
4052;DHT22;2040;50.924;11.604;2022-12-29T10:13:09;11.00;99.90
4052;DHT22;2040;50.924;11.604;2022-12-29T10:21:02;11.00;99.90
4052;DHT22;2040;50.924;11.604;2022-12-29T10:23:40;11.00;99.90
4052;DHT22;2040;50.924;11.604;2022-12-29T10:26:15;10.90;99.90
4052;DHT22;2040;50.924;11.604;2022-12-29T10:29:04;10.90;99.90
4052;DHT22;2040;50.924;11.604;2022-12-29T10:31:38;11.00;99.90
4052;DHT22;2040;50.924;11.604;2022-12-29T10:34:15;11.10;99.90
4052;DHT22;2040;50.924;11.604;2022-12-29T10:36:44;11.10;99.90
4052;DHT22;2040;50.924;11.604;2022-12-29T10:39:15;11.10;99.90
4052;DHT22;2040;50.924;11.604;2022-12-29T10:42:50;11.20;99.90
4052;DHT22;2040;50.924;11.604;2022-12-29T10:44:43;11.20;99.90
4052;DHT22;2040;50.924;11.604;2022-12-29T10:47:14;11.30;99.90
4052;DHT22;2040;50.924;11.604;2022-12-29T10:49:47;11.20;99.90
4052;DHT22;2040;50.924;11.604;2022-12-29T10:52:16;11.30;99.90
4052;DHT22;2040;50.924;11.604;2022-12-29T10:54:53;11.40;99.90
4052;DHT22;2040;50.924;11.604;2022-12-29T10:57:31;11.30;99.90
4052;DHT22;2040;50.924;11.604;2022-12-29T10:59:58;11.30;99.90
4052;DHT22;2040;50.924;11.604;2022-12-29T11:05:05;11.30;99.90
4052;DHT22;2040;50.924;11.604;2022-12-29T11:07:34;11.30;99.90
4052;DHT22;2040;50.924;11.604;2022-12-29T11:10:29;11.30;99.90
4052;DHT22;2040;50.924;11.604;2022-12-29T11:15:21;11.30;99.90
4052;DHT22;2040;50.924;11.604;2022-12-29T11:17:53;11.40;99.90
4052;DHT22;2040;50.924;11.604;2022-12-29T11:20:36;11.40;99.90
4052;DHT22;2040;50.924;11.604;2022-12-29T11:23:04;11.30;99.90
4052;DHT22;2040;50.924;11.604;2022-12-29T11:25:30;11.30;99.90
4052;DHT22;2040;50.924;11.604;2022-12-29T11:30:28;11.30;99.90
4052;DHT22;2040;50.924;11.604;2022-12-29T11:32:55;11.20;99.90
4052;DHT22;2040;50.924;11.604;2022-12-29T11:35:50;11.20;99.90
4052;DHT22;2040;50.924;11.604;2022-12-29T11:38:34;11.30;99.90
4052;DHT22;2040;50.924;11.604;2022-12-29T11:41:00;11.30;99.90
4052;DHT22;2040;50.924;11.604;2022-12-29T11:43:36;11.30;99.90
4052;DHT22;2040;50.924;11.604;2022-12-29T11:46:02;11.30;99.90
4052;DHT22;2040;50.924;11.604;2022-12-29T11:48:38;11.30;99.90
4052;DHT22;2040;50.924;11.604;2022-12-29T11:51:05;11.30;99.90
4052;DHT22;2040;50.924;11.604;2022-12-29T11:53:38;11.30;99.90
4052;DHT22;2040;50.924;11.604;2022-12-29T11:56:08;11.30;99.90
4052;DHT22;2040;50.924;11.604;2022-12-29T11:58:37;11.20;99.90
4052;DHT22;2040;50.924;11.604;2022-12-29T12:01:17;11.20;99.90
4052;DHT22;2040;50.924;11.604;2022-12-29T12:04:08;11.10;99.90
4052;DHT22;2040;50.924;11.604;2022-12-29T12:06:45;11.00;99.90
4052;DHT22;2040;50.924;11.604;2022-12-29T12:09:29;11.00;99.90
4052;DHT22;2040;50.924;11.604;2022-12-29T12:11:57;11.10;99.90
4052;DHT22;2040;50.924;11.604;2022-12-29T12:14:29;11.10;99.90
4052;DHT22;2040;50.924;11.604;2022-12-29T12:17:04;11.20;99.90
4052;DHT22;2040;50.924;11.604;2022-12-29T12:19:54;11.30;99.90
4052;DHT22;2040;50.924;11.604;2022-12-29T12:22:35;11.40;99.90
4052;DHT22;2040;50.924;11.604;2022-12-29T12:25:18;11.30;99.90
4052;DHT22;2040;50.924;11.604;2022-12-29T12:27:52;11.40;99.90
4052;DHT22;2040;50.924;11.604;2022-12-29T12:30:23;11.30;99.90
4052;DHT22;2040;50.924;11.604;2022-12-29T12:33:03;11.10;99.90
4052;DHT22;2040;50.924;11.604;2022-12-29T12:41:16;10.30;99.90
4052;DHT22;2040;50.924;11.604;2022-12-29T12:52:34;10.10;99.90
4052;DHT22;2040;50.924;11.604;2022-12-29T12:58:24;10.00;99.90
4052;DHT22;2040;50.924;11.604;2022-12-29T13:01:16;9.90;99.90
4052;DHT22;2040;50.924;11.604;2022-12-29T13:06:50;9.80;99.90
4052;DHT22;2040;50.924;11.604;2022-12-29T13:16:01;9.50;99.90
4052;DHT22;2040;50.924;11.604;2022-12-29T13:24:28;9.60;99.90
4052;DHT22;2040;50.924;11.604;2022-12-29T13:29:36;9.70;99.90
4052;DHT22;2040;50.924;11.604;2022-12-29T13:35:09;9.50;99.90
4052;DHT22;2040;50.924;11.604;2022-12-29T13:37:51;9.70;99.90
4052;DHT22;2040;50.924;11.604;2022-12-29T13:40:23;9.90;99.90
4052;DHT22;2040;50.924;11.604;2022-12-29T13:42:50;10.00;99.90
4052;DHT22;2040;50.924;11.604;2022-12-29T13:45:22;10.00;99.90
4052;DHT22;2040;50.924;11.604;2022-12-29T13:47:57;10.00;99.90
4052;DHT22;2040;50.924;11.604;2022-12-29T13:50:26;10.00;99.90
4052;DHT22;2040;50.924;11.604;2022-12-29T13:53:16;9.90;99.90
4052;DHT22;2040;50.924;11.604;2022-12-29T13:56:06;9.90;99.90
4052;DHT22;2040;50.924;11.604;2022-12-29T13:58:53;9.80;99.90
4052;DHT22;2040;50.924;11.604;2022-12-29T14:01:33;9.90;99.90
4052;DHT22;2040;50.924;11.604;2022-12-29T14:04:00;9.90;99.90
4052;DHT22;2040;50.924;11.604;2022-12-29T14:06:32;9.90;99.90
4052;DHT22;2040;50.924;11.604;2022-12-29T14:09:06;9.90;99.90
4052;DHT22;2040;50.924;11.604;2022-12-29T14:11:48;9.90;99.90
4052;DHT22;2040;50.924;11.604;2022-12-29T14:14:26;9.90;99.90
4052;DHT22;2040;50.924;11.604;2022-12-29T14:16:53;9.80;99.90
4052;DHT22;2040;50.924;11.604;2022-12-29T14:19:45;9.80;99.90
4052;DHT22;2040;50.924;11.604;2022-12-29T14:22:12;9.70;99.90
4052;DHT22;2040;50.924;11.604;2022-12-29T14:24:42;9.70;99.90
4052;DHT22;2040;50.924;11.604;2022-12-29T14:37:29;9.80;99.90
4052;DHT22;2040;50.924;11.604;2022-12-29T14:42:30;9.70;99.90
4052;DHT22;2040;50.924;11.604;2022-12-29T14:50:07;9.50;99.90
4052;DHT22;2040;50.924;11.604;2022-12-29T14:57:44;9.40;99.90
4052;DHT22;2040;50.924;11.604;2022-12-29T15:03:28;9.30;99.90
4052;DHT22;2040;50.924;11.604;2022-12-29T15:05:43;9.20;99.90
4052;DHT22;2040;50.924;11.604;2022-12-29T15:08:12;9.10;99.90
4052;DHT22;2040;50.924;11.604;2022-12-29T15:10:47;9.10;99.90
4052;DHT22;2040;50.924;11.604;2022-12-29T15:13:16;9.10;99.90
4052;DHT22;2040;50.924;11.604;2022-12-29T15:15:42;9.10;99.90
4052;DHT22;2040;50.924;11.604;2022-12-29T15:18:23;9.00;99.90
4052;DHT22;2040;50.924;11.604;2022-12-29T15:20:51;9.00;99.90
4052;DHT22;2040;50.924;11.604;2022-12-29T15:23:18;8.80;99.90
4052;DHT22;2040;50.924;11.604;2022-12-29T15:25:54;8.80;99.90
4052;DHT22;2040;50.924;11.604;2022-12-29T15:28:21;8.80;99.90
4052;DHT22;2040;50.924;11.604;2022-12-29T15:30:55;8.70;99.90
4052;DHT22;2040;50.924;11.604;2022-12-29T15:33:23;8.60;99.90
4052;DHT22;2040;50.924;11.604;2022-12-29T15:35:52;8.50;99.90
4052;DHT22;2040;50.924;11.604;2022-12-29T15:38:25;8.40;99.90
4052;DHT22;2040;50.924;11.604;2022-12-29T15:40:54;8.40;99.90
4052;DHT22;2040;50.924;11.604;2022-12-29T15:43:25;8.40;99.90
4052;DHT22;2040;50.924;11.604;2022-12-29T15:45:55;8.40;99.90
4052;DHT22;2040;50.924;11.604;2022-12-29T15:48:23;8.30;99.90
4052;DHT22;2040;50.924;11.604;2022-12-29T15:50:49;8.30;99.90
4052;DHT22;2040;50.924;11.604;2022-12-29T15:53:23;8.30;99.90
4052;DHT22;2040;50.924;11.604;2022-12-29T15:55:56;8.20;99.90
4052;DHT22;2040;50.924;11.604;2022-12-29T15:58:25;8.10;99.90
4052;DHT22;2040;50.924;11.604;2022-12-29T16:00:53;8.10;99.90
4052;DHT22;2040;50.924;11.604;2022-12-29T16:03:21;8.10;99.90
4052;DHT22;2040;50.924;11.604;2022-12-29T16:06:10;8.00;99.90
4052;DHT22;2040;50.924;11.604;2022-12-29T16:09:17;8.10;99.90
4052;DHT22;2040;50.924;11.604;2022-12-29T16:12:02;8.00;99.90
4052;DHT22;2040;50.924;11.604;2022-12-29T16:14:41;7.90;99.90
4052;DHT22;2040;50.924;11.604;2022-12-29T16:17:18;7.90;99.90
4052;DHT22;2040;50.924;11.604;2022-12-29T16:19:51;7.90;99.90
4052;DHT22;2040;50.924;11.604;2022-12-29T16:22:26;7.90;99.90
4052;DHT22;2040;50.924;11.604;2022-12-29T16:24:56;7.80;99.90
4052;DHT22;2040;50.924;11.604;2022-12-29T16:30:04;7.80;99.90
4052;DHT22;2040;50.924;11.604;2022-12-29T16:32:31;7.80;99.90
4052;DHT22;2040;50.924;11.604;2022-12-29T16:35:09;7.90;99.90
4052;DHT22;2040;50.924;11.604;2022-12-29T16:37:36;7.90;99.90
4052;DHT22;2040;50.924;11.604;2022-12-29T16:42:49;7.90;99.90
4052;DHT22;2040;50.924;11.604;2022-12-29T16:48:10;8.00;99.90
4052;DHT22;2040;50.924;11.604;2022-12-29T16:50:43;8.10;99.90
4052;DHT22;2040;50.924;11.604;2022-12-29T16:55:47;8.20;99.90
4052;DHT22;2040;50.924;11.604;2022-12-29T16:58:20;8.30;99.90
4052;DHT22;2040;50.924;11.604;2022-12-29T17:00:47;8.30;99.90
4052;DHT22;2040;50.924;11.604;2022-12-29T17:03:13;8.20;99.90
4052;DHT22;2040;50.924;11.604;2022-12-29T17:05:39;8.20;99.90
4052;DHT22;2040;50.924;11.604;2022-12-29T17:08:17;8.20;99.90
4052;DHT22;2040;50.924;11.604;2022-12-29T17:10:49;8.20;99.90
4052;DHT22;2040;50.924;11.604;2022-12-29T17:13:34;8.30;99.90
4052;DHT22;2040;50.924;11.604;2022-12-29T17:16:00;8.40;99.90
4052;DHT22;2040;50.924;11.604;2022-12-29T17:18:25;8.40;99.90
4052;DHT22;2040;50.924;11.604;2022-12-29T17:20:51;8.30;99.90
4052;DHT22;2040;50.924;11.604;2022-12-29T17:23:16;8.30;99.90
4052;DHT22;2040;50.924;11.604;2022-12-29T17:25:42;8.30;99.90
4052;DHT22;2040;50.924;11.604;2022-12-29T17:28:23;8.50;99.90
4052;DHT22;2040;50.924;11.604;2022-12-29T17:30:49;8.50;99.90
4052;DHT22;2040;50.924;11.604;2022-12-29T17:33:18;8.40;99.90
4052;DHT22;2040;50.924;11.604;2022-12-29T17:35:44;8.40;99.90
4052;DHT22;2040;50.924;11.604;2022-12-29T17:38:16;8.30;99.90
4052;DHT22;2040;50.924;11.604;2022-12-29T17:40:42;8.20;99.90
4052;DHT22;2040;50.924;11.604;2022-12-29T17:43:12;8.20;99.90
4052;DHT22;2040;50.924;11.604;2022-12-29T17:45:38;8.20;99.90
4052;DHT22;2040;50.924;11.604;2022-12-29T17:48:11;8.20;99.90
4052;DHT22;2040;50.924;11.604;2022-12-29T17:50:37;8.30;99.90
4052;DHT22;2040;50.924;11.604;2022-12-29T17:53:04;8.20;99.90
4052;DHT22;2040;50.924;11.604;2022-12-29T17:55:31;8.20;99.90
4052;DHT22;2040;50.924;11.604;2022-12-29T17:57:57;8.30;99.90
4052;DHT22;2040;50.924;11.604;2022-12-29T18:00:25;8.20;99.90
4052;DHT22;2040;50.924;11.604;2022-12-29T18:02:55;8.30;99.90
4052;DHT22;2040;50.924;11.604;2022-12-29T18:05:29;8.30;99.90
4052;DHT22;2040;50.924;11.604;2022-12-29T18:07:58;8.30;99.90
4052;DHT22;2040;50.924;11.604;2022-12-29T18:10:26;8.30;99.90
4052;DHT22;2040;50.924;11.604;2022-12-29T18:12:54;8.30;99.90